Time;durP1;ratioP1;P1;durP2;ratioP2;P2;SDS_P1;SDS_P2;PMS_P1;PMS_P2;Temp;Humidity;BMP_temperature;BMP_pressure;BME280_temperature;BME280_humidity;BME280_pressure;Samples;Min_cycle;Max_cycle;Signal;HPM_P1;HPM_P2
2021/10/25 00:01:00;;;;;;;46.73;43.17;;;;;;;13.29;100.00;101684.03;1941287;74;33511;-73
2021/10/25 00:06:26;;;;;;;47.77;43.83;;;;;;;13.20;100.00;101678.19;1941242;74;33131;-71
2021/10/25 00:11:50;;;;;;;45.87;42.47;;;;;;;13.12;100.00;101680.16;1941322;74;33574;-70
2021/10/25 00:17:15;;;;;;;47.57;43.47;;;;;;;13.18;100.00;101672.05;1941137;74;33066;-71
2021/10/25 00:22:39;;;;;;;45.93;41.73;;;;;;;13.09;100.00;101661.73;1941092;74;33161;-71
2021/10/25 00:28:05;;;;;;;45.50;41.47;;;;;;;13.05;100.00;101667.60;1941190;74;33037;-72
2021/10/25 00:33:29;;;;;;;45.77;42.07;;;;;;;13.08;100.00;101665.64;1941108;74;33187;-70
2021/10/25 00:38:53;;;;;;;47.83;43.70;;;;;;;13.03;100.00;101663.69;1941347;74;33652;-71
2021/10/25 00:44:19;;;;;;;47.57;43.37;;;;;;;12.99;100.00;101658.40;1941095;74;33087;-72
2021/10/25 00:49:44;;;;;;;45.57;42.07;;;;;;;12.86;100.00;101665.95;1941022;74;33005;-70
2021/10/25 00:55:10;;;;;;;45.27;41.73;;;;;;;12.82;100.00;101659.27;1941319;74;33628;-71
2021/10/25 01:00:36;;;;;;;46.37;42.77;;;;;;;12.96;100.00;101656.73;1941367;74;33071;-71
2021/10/25 01:06:00;;;;;;;45.87;42.17;;;;;;;12.75;100.00;101653.11;1941290;74;33531;-70
2021/10/25 01:11:28;;;;;;;45.90;41.80;;;;;;;12.74;100.00;101654.25;1941221;74;33051;-72
2021/10/25 01:16:53;;;;;;;46.57;42.50;;;;;;;12.74;100.00;101650.91;1941295;74;33641;-74
2021/10/25 01:22:21;;;;;;;47.93;43.90;;;;;;;12.66;100.00;101656.22;1941117;74;33005;-72
2021/10/25 01:27:45;;;;;;;47.87;43.63;;;;;;;12.49;100.00;101659.84;1941278;74;33562;-72
2021/10/25 01:33:15;;;;;;;47.73;44.40;;;;;;;12.32;100.00;101656.74;1941139;74;33167;-71
2021/10/25 01:38:41;;;;;;;46.53;43.00;;;;;;;12.12;100.00;101655.33;1941065;74;33036;-70
2021/10/25 01:44:11;;;;;;;44.73;41.27;;;;;;;11.67;100.00;101657.42;1941279;74;33141;-70
2021/10/25 01:49:40;;;;;;;45.53;42.03;;;;;;;11.48;100.00;101660.94;1941054;74;33009;-70
2021/10/25 01:55:06;;;;;;;46.37;43.03;;;;;;;11.36;100.00;101653.67;1941239;74;32971;-70
2021/10/25 02:00:30;;;;;;;45.23;41.90;;;;;;;11.53;100.00;101655.41;1941011;74;33057;-72
2021/10/25 02:05:54;;;;;;;44.23;40.83;;;;;;;11.43;100.00;101646.45;1941039;74;33720;-70
2021/10/25 02:11:18;;;;;;;47.07;42.97;;;;;;;11.11;100.00;101642.97;1941060;74;33141;-70
2021/10/25 02:16:43;;;;;;;44.17;41.17;;;;;;;11.15;100.00;101645.49;1941059;74;33092;-72
2021/10/25 02:22:08;;;;;;;46.03;42.53;;;;;;;11.13;100.00;101639.34;1941228;74;33124;-71
2021/10/25 02:27:32;;;;;;;44.47;41.17;;;;;;;11.42;100.00;101642.02;1941303;74;33483;-72
2021/10/25 02:32:57;;;;;;;45.13;41.30;;;;;;;11.73;100.00;101641.03;1941309;74;33547;-70
2021/10/25 02:38:21;;;;;;;44.27;40.53;;;;;;;11.81;100.00;101632.70;1941077;74;33117;-70
2021/10/25 02:43:45;;;;;;;46.40;42.67;;;;;;;11.72;100.00;101633.80;1941104;74;33084;-70
2021/10/25 02:49:09;;;;;;;47.23;43.30;;;;;;;11.88;100.00;101626.89;1941039;74;33017;-70
2021/10/25 02:54:33;;;;;;;44.13;40.63;;;;;;;11.96;100.00;101618.83;1941042;74;33171;-71
2021/10/25 02:59:58;;;;;;;43.57;40.07;;;;;;;11.96;100.00;101619.38;1941325;74;33596;-70
2021/10/25 03:05:23;;;;;;;43.70;39.77;;;;;;;12.17;100.00;101618.30;1941273;74;33571;-71
2021/10/25 03:10:48;;;;;;;45.07;41.33;;;;;;;11.96;100.00;101612.42;1941276;74;33693;-70
2021/10/25 03:16:13;;;;;;;43.63;39.73;;;;;;;11.93;100.00;101614.38;1941308;74;32990;-72
2021/10/25 03:21:37;;;;;;;45.37;41.60;;;;;;;11.79;100.00;101602.38;1941268;74;33598;-70
2021/10/25 03:27:01;;;;;;;43.73;40.27;;;;;;;11.65;100.00;101601.19;1941272;74;33602;-71
2021/10/25 03:32:26;;;;;;;44.93;40.77;;;;;;;11.64;100.00;101597.27;1941290;74;33580;-70
2021/10/25 03:37:51;;;;;;;45.93;41.67;;;;;;;11.58;100.00;101598.39;1941262;74;33127;-70
2021/10/25 03:43:16;;;;;;;43.57;40.17;;;;;;;11.32;100.00;101597.46;1941229;74;33600;-71
2021/10/25 03:48:45;;;;;;;43.87;40.80;;;;;;;10.85;100.00;101603.91;1941080;74;33053;-70
2021/10/25 03:54:21;;;;;;;45.13;41.53;;;;;;;10.62;100.00;101605.69;1941024;74;33128;-73
2021/10/25 04:28:41;;;;;;;42.97;39.77;;;;;;;10.23;100.00;101613.97;1941171;74;33131;-72
2021/10/25 04:34:11;;;;;;;42.20;39.03;;;;;;;10.30;100.00;101615.45;1941314;74;33586;-72
2021/10/25 04:39:35;;;;;;;42.10;39.20;;;;;;;10.26;100.00;101610.69;1941297;74;33501;-72
2021/10/25 04:45:01;;;;;;;44.27;41.23;;;;;;;10.15;100.00;101615.30;1941047;74;33059;-74
2021/10/25 04:50:26;;;;;;;40.40;37.60;;;;;;;10.31;100.00;101611.55;1941148;74;33059;-70
2021/10/25 04:55:50;;;;;;;40.70;37.90;;;;;;;10.34;100.00;101616.59;1941168;74;32988;-70
2021/10/25 05:01:15;;;;;;;42.57;39.50;;;;;;;10.35;100.00;101610.49;1941131;74;33087;-71
2021/10/25 05:06:39;;;;;;;43.00;39.93;;;;;;;9.93;100.00;101615.34;1941136;74;33092;-72
2021/10/25 05:09:53;;;;;;;42.97;39.83;;;;;;;9.96;100.00;101620.38;1905054;75;26761;-70
2021/10/25 05:15:17;;;;;;;42.47;39.00;;;;;;;10.11;100.00;101613.28;1941179;74;33147;-71
2021/10/25 05:20:42;;;;;;;42.67;39.03;;;;;;;10.23;100.00;101607.03;1941272;74;33532;-73
2021/10/25 05:26:06;;;;;;;42.03;38.40;;;;;;;10.36;100.00;101605.20;1941145;74;33060;-73
2021/10/25 05:31:31;;;;;;;42.03;38.60;;;;;;;10.31;100.00;101606.58;1941090;74;33060;-70
2021/10/25 05:36:55;;;;;;;44.43;40.67;;;;;;;10.14;100.00;101594.73;1941281;74;33620;-70
2021/10/25 05:42:22;;;;;;;43.80;40.27;;;;;;;10.25;100.00;101595.97;1941148;74;32988;-73
2021/10/25 05:47:47;;;;;;;42.40;39.00;;;;;;;10.17;100.00;101588.67;1941283;74;33106;-71
2021/10/25 05:53:32;;;;;;;44.07;40.33;;;;;;;9.85;100.00;101593.61;2009972;71;33386;-71
2021/10/25 05:58:58;;;;;;;43.60;40.20;;;;;;;9.75;100.00;101589.91;1941105;74;33095;-71
2021/10/25 06:04:24;;;;;;;45.07;41.57;;;;;;;9.35;100.00;101589.75;1941070;74;33098;-70
2021/10/25 06:09:55;;;;;;;43.30;40.30;;;;;;;9.42;100.00;101585.38;1941099;74;33014;-71
2021/10/25 06:15:23;;;;;;;41.63;38.33;;;;;;;9.41;100.00;101592.04;1941418;74;33481;-71
2021/10/25 06:20:47;;;;;;;42.53;39.33;;;;;;;9.54;100.00;101587.48;1941366;74;32999;-71
2021/10/25 06:26:12;;;;;;;43.33;39.93;;;;;;;9.72;100.00;101587.09;1941224;74;32988;-71
2021/10/25 06:31:42;;;;;;;45.37;41.27;;;;;;;9.84;100.00;101596.09;1941360;74;33032;-70
2021/10/25 06:37:07;;;;;;;43.70;39.37;;;;;;;10.24;100.00;101591.51;1941338;74;33583;-74
2021/10/25 06:42:31;;;;;;;43.97;39.43;;;;;;;10.63;100.00;101590.70;1941080;74;33089;-74
2021/10/25 06:47:56;;;;;;;44.83;41.10;;;;;;;10.42;100.00;101591.66;1941229;74;33101;-75
2021/10/25 06:53:28;;;;;;;45.03;41.17;;;;;;;10.37;100.00;101604.11;1941113;74;33129;-70
2021/10/25 06:58:53;;;;;;;45.53;41.80;;;;;;;10.07;100.00;101604.65;1941160;74;32991;-72
2021/10/25 07:04:17;;;;;;;43.10;40.00;;;;;;;9.94;100.00;101611.47;1941274;74;33620;-72
2021/10/25 07:09:41;;;;;;;45.00;41.23;;;;;;;10.05;100.00;101621.55;1941081;74;33092;-73
2021/10/25 07:15:09;;;;;;;43.00;39.73;;;;;;;9.98;100.00;101622.33;1941064;74;33007;-72
2021/10/25 07:20:45;;;;;;;43.70;40.07;;;;;;;9.98;100.00;101623.72;1941177;74;33083;-73
2021/10/25 07:26:39;;;;;;;43.57;40.07;;;;;;;10.10;100.00;101619.38;1941325;74;33654;-70
2021/10/25 08:00:51;;;;;;;44.60;40.47;;;;;;;11.91;100.00;101645.81;1941046;74;33065;-69
2021/10/25 08:06:10;;;;;;;41.30;37.40;;;;;;;12.03;100.00;101650.02;1941225;74;33634;-69
2021/10/25 08:11:40;;;;;;;39.83;36.00;;;;;;;12.25;100.00;101646.99;1941102;74;33064;-70
2021/10/25 08:17:02;;;;;;;41.07;37.37;;;;;;;12.47;100.00;101650.36;1941115;74;33069;-68
2021/10/25 08:22:27;;;;;;;40.17;36.63;;;;;;;12.70;100.00;101642.84;1941180;74;32987;-68
2021/10/25 08:27:52;;;;;;;42.10;38.50;;;;;;;12.70;100.00;101650.36;1941334;74;33516;-70
2021/10/25 08:33:39;;;;;;;42.13;38.10;;;;;;;12.81;100.00;101653.95;1941336;74;33048;-70
2021/10/25 08:44:34;;;;;;;42.20;38.60;;;;;;;12.92;100.00;101659.81;1941293;74;33086;-69
2021/10/25 08:49:59;;;;;;;42.27;38.57;;;;;;;13.02;100.00;101659.22;1940976;74;32991;-70
2021/10/25 08:55:23;;;;;;;41.57;37.97;;;;;;;13.12;100.00;101654.22;1941036;74;33082;-69
2021/10/25 09:00:55;;;;;;;40.47;37.10;;;;;;;13.15;100.00;101652.25;1941090;74;33084;-71
2021/10/25 09:06:19;;;;;;;41.67;38.00;;;;;;;13.19;100.00;101649.17;1941287;74;33562;-70
2021/10/25 09:12:03;;;;;;;40.57;37.07;;;;;;;13.46;100.00;101640.44;1941279;74;33485;-69
2021/10/25 09:17:28;;;;;;;41.77;37.63;;;;;;;13.62;100.00;101642.88;1941209;74;33534;-69
2021/10/25 09:23:12;;;;;;;41.37;37.70;;;;;;;13.85;100.00;101645.56;1941039;74;33005;-72
2021/10/25 09:28:40;;;;;;;40.20;37.00;;;;;;;13.96;100.00;101641.56;1941251;74;33003;-70
2021/10/25 09:34:09;;;;;;;40.07;36.57;;;;;;;13.91;100.00;101642.16;1941035;74;33001;-70
2021/10/25 09:39:41;;;;;;;41.07;37.47;;;;;;;14.02;100.00;101641.82;1941099;74;33660;-69
2021/10/25 09:45:36;;;;;;;44.83;41.23;;;;;;;14.05;100.00;101638.45;1941311;74;32993;-70
2021/10/25 09:51:10;;;;;;;41.33;37.93;;;;;;;14.17;100.00;101633.05;1941373;74;33481;-70
2021/10/25 09:56:43;;;;;;;41.53;38.33;;;;;;;14.24;100.00;101627.98;1941384;74;33478;-69
2021/10/25 10:02:03;;;;;;;42.67;38.93;;;;;;;14.28;100.00;101631.86;1941043;74;33081;-69
2021/10/25 10:07:28;;;;;;;41.63;38.53;;;;;;;14.28;100.00;101637.45;1941131;74;33088;-69
2021/10/25 10:12:54;;;;;;;46.92;43.23;;;;;;;14.36;100.00;101640.50;1925148;74;28123;-70
2021/10/25 10:18:22;;;;;;;47.87;44.23;;;;;;;14.39;100.00;101635.71;1941162;74;33005;-70
2021/10/25 10:23:58;;;;;;;44.07;40.40;;;;;;;14.47;100.00;101637.88;1907772;75;33090;-70
2021/10/25 10:29:20;;;;;;;43.90;40.30;;;;;;;14.64;100.00;101629.63;1941057;74;33017;-70
2021/10/25 10:35:15;;;;;;;43.60;40.20;;;;;;;14.81;100.00;101632.81;2014916;71;32977;-70
2021/10/25 10:40:42;;;;;;;41.93;38.53;;;;;;;15.30;100.00;101641.81;1941188;74;33162;-69
2021/10/25 10:46:23;;;;;;;41.73;38.73;;;;;;;15.12;100.00;101632.78;1941108;74;33133;-69
2021/10/25 10:52:12;;;;;;;42.67;39.40;;;;;;;14.89;100.00;101633.01;1941359;74;33083;-68
2021/10/25 10:58:23;;;;;;;43.20;39.93;;;;;;;14.81;100.00;101635.61;1941335;74;33627;-68
2021/10/25 11:03:44;;;;;;;43.10;39.87;;;;;;;14.70;100.00;101641.05;1941399;74;33642;-70
2021/10/25 11:09:11;;;;;;;43.23;39.97;;;;;;;14.76;100.00;101635.69;1941149;74;33132;-68
2021/10/25 11:15:02;;;;;;;39.77;36.80;;;;;;;15.06;100.00;101626.95;2010354;71;33337;-71
2021/10/25 11:20:27;;;;;;;41.07;37.90;;;;;;;15.05;100.00;101622.52;1941373;74;33572;-69
2021/10/25 11:25:57;;;;;;;39.63;36.77;;;;;;;15.36;100.00;101622.41;1941364;74;33468;-72
2021/10/25 11:31:21;;;;;;;38.40;35.73;;;;;;;15.63;100.00;101614.83;1941163;74;33122;-70
2021/10/25 11:36:56;;;;;;;41.33;38.13;;;;;;;15.85;100.00;101605.84;1941187;74;33002;-70
2021/10/25 11:42:29;;;;;;;42.70;39.40;;;;;;;15.75;100.00;101592.80;1941332;74;33465;-69
2021/10/25 11:47:55;;;;;;;42.87;39.97;;;;;;;15.85;100.00;101591.83;1941157;74;33076;-68
2021/10/25 11:53:20;;;;;;;42.70;39.50;;;;;;;15.84;100.00;101588.19;1941080;74;33080;-69
2021/10/25 11:58:44;;;;;;;46.10;42.73;;;;;;;15.75;100.00;101578.80;1941205;74;33078;-69
2021/10/25 12:04:12;;;;;;;48.63;44.93;;;;;;;15.33;100.00;101568.99;1941105;74;32997;-70
2021/10/25 12:09:36;;;;;;;44.50;41.23;;;;;;;15.41;100.00;101574.76;1941345;74;33121;-68
2021/10/25 12:15:04;;;;;;;46.40;42.90;;;;;;;15.23;100.00;101557.95;1941247;74;33080;-68
2021/10/25 12:20:32;;;;;;;47.20;43.53;;;;;;;15.16;100.00;101556.89;1941337;74;33665;-71
2021/10/25 12:25:59;;;;;;;46.73;43.43;;;;;;;15.41;100.00;101558.52;1941142;74;33010;-68
2021/10/25 12:31:24;;;;;;;45.60;42.07;;;;;;;15.54;100.00;101560.62;1941246;74;33473;-68
2021/10/25 12:36:57;;;;;;;46.00;42.43;;;;;;;15.69;100.00;101560.98;1941366;74;33491;-69
2021/10/25 12:42:23;;;;;;;45.60;42.10;;;;;;;15.75;100.00;101545.75;1941277;74;33076;-69
2021/10/25 12:47:48;;;;;;;43.57;40.30;;;;;;;15.61;100.00;101547.66;1941335;74;33504;-69
2021/10/25 12:53:15;;;;;;;44.33;41.37;;;;;;;15.58;100.00;101542.64;1941140;74;33077;-70
2021/10/25 12:58:49;;;;;;;43.63;40.60;;;;;;;15.70;100.00;101533.25;1941428;74;33571;-69
2021/10/25 13:04:19;;;;;;;42.73;39.73;;;;;;;15.71;100.00;101530.69;1941048;74;33144;-69
2021/10/25 13:09:52;;;;;;;41.20;38.67;;;;;;;15.86;100.00;101517.86;1941122;74;33000;-70
2021/10/25 13:15:16;;;;;;;42.83;39.73;;;;;;;15.99;100.00;101512.88;1941102;74;33000;-68
2021/10/25 13:20:42;;;;;;;41.77;39.00;;;;;;;16.05;100.00;101501.00;1941129;74;33010;-70
2021/10/25 13:26:06;;;;;;;41.73;39.03;;;;;;;16.20;100.00;101490.38;1941100;74;33058;-69
2021/10/25 13:31:31;;;;;;;42.33;39.37;;;;;;;16.15;100.00;101483.45;1941373;74;32984;-70
2021/10/25 13:36:56;;;;;;;39.57;37.03;;;;;;;16.11;100.00;101468.39;1941328;74;33083;-68
2021/10/25 13:42:20;;;;;;;39.97;37.57;;;;;;;16.06;100.00;101456.42;1941311;74;33443;-70
2021/10/25 13:47:44;;;;;;;37.90;35.47;;;;;;;16.16;100.00;101459.90;1941078;74;33080;-70
2021/10/25 13:53:09;;;;;;;40.23;37.93;;;;;;;16.31;100.00;101456.80;1941360;74;33128;-68
2021/10/25 13:58:34;;;;;;;35.60;33.57;;;;;;;16.26;100.00;101452.68;1941137;74;33046;-70
2021/10/25 14:03:58;;;;;;;37.63;35.37;;;;;;;16.44;100.00;101451.52;1941123;74;32962;-71
2021/10/25 14:09:23;;;;;;;36.50;34.50;;;;;;;16.05;100.00;101456.16;1941147;74;31103;-70
2021/10/25 14:14:47;;;;;;;37.17;35.17;;;;;;;15.99;100.00;101454.03;1941116;74;32964;-67
2021/10/25 14:20:12;;;;;;;37.57;35.47;;;;;;;15.91;100.00;101449.14;1941123;74;33063;-72
2021/10/25 14:25:37;;;;;;;34.60;32.40;;;;;;;16.04;100.00;101451.15;1941372;74;33076;-71
2021/10/25 14:31:01;;;;;;;35.47;33.40;;;;;;;16.16;100.00;101454.86;1941316;74;33032;-68
2021/10/25 14:36:27;;;;;;;34.40;32.40;;;;;;;16.09;100.00;101444.03;1941357;74;33586;-69
2021/10/25 14:41:58;;;;;;;33.27;31.47;;;;;;;16.25;100.00;101436.19;1977964;72;32958;-70
2021/10/25 14:47:45;;;;;;;28.03;26.53;;;;;;;16.22;100.00;101439.59;1941015;74;33184;-70
2021/10/25 14:53:25;;;;;;;25.30;24.10;;;;;;;16.03;100.00;101443.87;1941272;74;33544;-69
2021/10/25 14:58:49;;;;;;;29.33;27.77;;;;;;;15.91;100.00;101439.33;1941279;74;33545;-69
2021/10/25 15:04:15;;;;;;;28.53;27.03;;;;;;;15.76;100.00;101436.77;1941324;74;33607;-69
2021/10/25 15:09:41;;;;;;;28.60;27.10;;;;;;;15.90;100.00;101435.69;1941116;74;32961;-70
2021/10/25 15:15:09;;;;;;;32.33;30.70;;;;;;;15.75;100.00;101444.34;1941361;74;33567;-69
2021/10/25 15:20:33;;;;;;;33.53;31.67;;;;;;;15.60;100.00;101449.37;1941198;74;33097;-71
2021/10/25 15:25:58;;;;;;;32.37;30.47;;;;;;;15.55;100.00;101448.88;1941142;74;33113;-70
2021/10/25 15:31:22;;;;;;;33.60;31.80;;;;;;;15.58;100.00;101452.47;1941066;74;33046;-69
2021/10/25 15:36:47;;;;;;;33.87;31.97;;;;;;;15.87;100.00;101448.09;1941340;74;33545;-69
2021/10/25 15:42:12;;;;;;;32.00;30.20;;;;;;;15.99;100.00;101459.64;1941299;74;33569;-71
2021/10/25 15:47:43;;;;;;;32.83;31.03;;;;;;;15.89;100.00;101459.80;1941314;74;33048;-69
2021/10/25 15:53:07;;;;;;;33.83;31.70;;;;;;;15.66;100.00;101460.17;1941294;74;33052;-69
2021/10/25 15:58:31;;;;;;;33.07;31.27;;;;;;;15.63;100.00;101478.16;1941318;74;33498;-70
2021/10/25 16:03:55;;;;;;;35.30;33.10;;;;;;;15.50;100.00;101481.16;1941104;74;33024;-70
2021/10/25 16:09:20;;;;;;;37.90;35.77;;;;;;;15.46;100.00;101497.70;1941304;74;33474;-69
2021/10/25 16:14:44;;;;;;;39.40;37.00;;;;;;;15.20;100.00;101499.75;1941331;74;33480;-70
2021/10/25 16:20:11;;;;;;;37.60;35.30;;;;;;;15.36;100.00;101499.83;1941334;74;33545;-70
2021/10/25 16:25:36;;;;;;;37.37;35.37;;;;;;;15.23;100.00;101511.77;1941193;74;33044;-69
2021/10/25 16:31:01;;;;;;;35.93;33.97;;;;;;;15.19;100.00;101521.30;1941071;74;33031;-69
2021/10/25 16:36:26;;;;;;;36.70;34.70;;;;;;;14.99;100.00;101525.20;1941155;74;32958;-70
2021/10/25 16:41:50;;;;;;;38.10;35.80;;;;;;;14.85;100.00;101524.80;1941366;74;33475;-70
2021/10/25 16:47:14;;;;;;;41.47;38.87;;;;;;;14.72;100.00;101537.53;1941352;74;33488;-70
2021/10/25 16:52:46;;;;;;;41.90;39.57;;;;;;;14.59;100.00;101546.62;1941081;74;33049;-70
2021/10/25 17:04:09;;;;;;;43.17;40.80;;;;;;;14.41;100.00;101555.20;1941266;74;33503;-69
2021/10/25 17:09:32;;;;;;;49.33;46.43;;;;;;;14.10;100.00;101565.77;1941152;74;33477;-68
2021/10/25 17:15:03;;;;;;;51.47;48.37;;;;;;;13.37;100.00;101574.61;1941105;74;32952;-70
2021/10/25 17:20:27;;;;;;;51.40;48.23;;;;;;;13.15;100.00;101583.91;1941302;74;33544;-69
2021/10/25 17:25:53;;;;;;;51.23;48.00;;;;;;;12.99;100.00;101600.39;1941165;74;33070;-70
2021/10/25 17:31:17;;;;;;;48.90;45.70;;;;;;;13.04;100.00;101605.41;1941146;74;33079;-67
2021/10/25 17:36:42;;;;;;;47.17;44.00;;;;;;;13.10;100.00;101613.17;1941302;74;33161;-67
2021/10/25 17:42:08;;;;;;;49.40;46.43;;;;;;;13.38;100.00;101618.70;1941184;74;32985;-66
2021/10/25 17:47:32;;;;;;;49.67;46.57;;;;;;;13.00;100.00;101637.77;1941154;74;33102;-68
2021/10/25 17:52:57;;;;;;;51.17;47.70;;;;;;;12.83;100.00;101634.45;1941374;74;33521;-67
2021/10/25 17:58:23;;;;;;;50.27;47.03;;;;;;;12.90;100.00;101647.54;1941102;74;32988;-70
2021/10/25 18:03:50;;;;;;;50.43;47.10;;;;;;;12.70;100.00;101658.72;1941348;74;33559;-67
2021/10/25 18:09:14;;;;;;;48.43;45.03;;;;;;;12.79;100.00;101663.42;1941286;74;33543;-69
2021/10/25 18:14:39;;;;;;;49.27;46.20;;;;;;;12.96;100.00;101665.95;1941249;74;33485;-71
2021/10/25 18:20:03;;;;;;;48.57;45.53;;;;;;;12.97;100.00;101669.55;1941296;74;33175;-68
2021/10/25 18:25:28;;;;;;;47.90;44.60;;;;;;;12.76;100.00;101675.15;1941090;74;33058;-66
2021/10/25 18:30:54;;;;;;;45.20;42.40;;;;;;;12.85;100.00;101679.61;1941165;74;33133;-68
2021/10/25 18:36:19;;;;;;;48.43;45.37;;;;;;;12.86;100.00;101679.89;1941265;74;32994;-68
2021/10/25 18:41:44;;;;;;;50.70;47.40;;;;;;;12.38;100.00;101699.39;1941162;74;33076;-68
2021/10/25 18:47:12;;;;;;;49.80;46.57;;;;;;;12.40;100.00;101703.30;1941159;74;33126;-68
2021/10/25 18:52:34;;;;;;;51.37;48.17;;;;;;;12.35;100.00;101714.43;1941410;74;33568;-68
2021/10/25 18:58:00;;;;;;;51.90;48.63;;;;;;;12.18;100.00;101716.07;1941325;74;33067;-69
2021/10/25 19:03:25;;;;;;;52.27;49.10;;;;;;;12.30;100.00;101719.44;1941335;74;33594;-71
2021/10/25 19:08:50;;;;;;;52.03;48.53;;;;;;;12.19;100.00;101720.53;1941330;74;33483;-70
2021/10/25 19:14:16;;;;;;;54.33;50.63;;;;;;;11.84;100.00;101725.44;1941147;74;33031;-70
2021/10/25 19:19:43;;;;;;;54.90;51.20;;;;;;;11.71;100.00;101717.00;1941132;74;33033;-70
2021/10/25 19:25:10;;;;;;;53.93;50.17;;;;;;;11.97;100.00;101722.69;1941304;74;33557;-67
2021/10/25 19:30:35;;;;;;;55.63;51.93;;;;;;;11.87;100.00;101726.27;1941431;74;33472;-69
2021/10/25 19:36:00;;;;;;;54.40;50.60;;;;;;;11.66;100.00;101730.05;1941312;74;33598;-67
2021/10/25 19:41:28;;;;;;;56.10;52.10;;;;;;;11.51;100.00;101728.59;1941246;74;33449;-70
2021/10/25 19:46:54;;;;;;;57.53;53.33;;;;;;;11.53;100.00;101738.33;1941283;74;32966;-69
2021/10/25 19:52:18;;;;;;;60.73;56.40;;;;;;;11.52;100.00;101739.98;1941247;74;32954;-68
2021/10/25 19:57:43;;;;;;;55.17;51.33;;;;;;;11.42;100.00;101756.89;1941208;74;33035;-68
2021/10/25 20:03:11;;;;;;;54.13;50.30;;;;;;;11.29;100.00;101763.50;1941101;74;33077;-67
2021/10/25 20:08:38;;;;;;;51.23;47.37;;;;;;;11.25;100.00;101752.63;1941125;74;33073;-68
2021/10/25 20:14:07;;;;;;;50.77;46.87;;;;;;;11.28;100.00;101757.65;1941325;74;33544;-66
2021/10/25 20:19:31;;;;;;;51.80;48.20;;;;;;;11.10;100.00;101755.28;1941132;74;32982;-71
2021/10/25 20:24:56;;;;;;;51.70;47.87;;;;;;;11.24;100.00;101769.87;1941378;74;33658;-70
2021/10/25 20:30:21;;;;;;;48.93;45.40;;;;;;;11.09;100.00;101760.55;1941174;74;32982;-68
2021/10/25 20:35:47;;;;;;;49.17;45.47;;;;;;;11.04;100.00;101771.08;1941037;74;33071;-67
2021/10/25 20:41:13;;;;;;;51.00;47.20;;;;;;;10.91;100.00;101768.20;1941053;74;33099;-66
2021/10/25 20:46:38;;;;;;;48.70;44.90;;;;;;;10.98;100.00;101790.23;1941061;74;33003;-67
2021/10/25 20:52:03;;;;;;;50.60;46.77;;;;;;;11.01;100.00;101784.13;1941038;74;33075;-68
2021/10/25 20:57:27;;;;;;;52.17;48.10;;;;;;;10.90;100.00;101792.11;1941334;74;33573;-68
2021/10/25 21:02:54;;;;;;;53.10;48.83;;;;;;;10.82;100.00;101789.27;1941048;74;33063;-69
2021/10/25 21:08:19;;;;;;;51.50;47.60;;;;;;;10.79;100.00;101800.05;1941285;74;33566;-68
2021/10/25 21:13:45;;;;;;;50.73;47.03;;;;;;;10.66;100.00;101797.70;1941346;74;33538;-68
2021/10/25 21:19:09;;;;;;;51.67;47.60;;;;;;;10.72;100.00;101803.06;1941132;74;32985;-68
2021/10/25 21:24:39;;;;;;;49.40;45.53;;;;;;;10.45;100.00;101806.37;1941315;74;33569;-68
2021/10/25 21:30:09;;;;;;;51.50;47.60;;;;;;;10.42;100.00;101813.84;1941332;74;32987;-68
2021/10/25 21:35:34;;;;;;;50.63;46.83;;;;;;;10.35;100.00;101825.73;1941264;74;33514;-68
2021/10/25 21:41:00;;;;;;;49.77;45.97;;;;;;;10.34;100.00;101837.37;1941309;74;33477;-68
2021/10/25 21:46:25;;;;;;;49.83;46.03;;;;;;;10.23;100.00;101843.05;1941287;74;33550;-68
2021/10/25 21:51:50;;;;;;;50.23;46.33;;;;;;;10.21;100.00;101853.05;1941152;74;33001;-68
2021/10/25 21:57:15;;;;;;;50.03;46.37;;;;;;;10.13;100.00;101852.62;1941044;74;33062;-68
2021/10/25 22:02:40;;;;;;;50.27;46.23;;;;;;;10.12;100.00;101855.94;1941088;74;33059;-68
2021/10/25 22:08:06;;;;;;;47.63;44.20;;;;;;;10.24;100.00;101848.35;1941082;74;32982;-68
2021/10/25 22:13:30;;;;;;;46.63;43.33;;;;;;;10.15;100.00;101855.96;1941359;74;33632;-68
2021/10/25 22:18:54;;;;;;;47.27;43.77;;;;;;;10.17;100.00;101853.81;1941282;74;33551;-68
2021/10/25 22:24:19;;;;;;;48.13;44.40;;;;;;;10.19;100.00;101869.66;1941273;74;33095;-69
2021/10/25 22:29:43;;;;;;;51.57;47.70;;;;;;;10.14;100.00;101871.78;1941307;74;33141;-68
2021/10/25 22:35:11;;;;;;;51.63;47.83;;;;;;;9.65;100.00;101869.43;1941341;74;33565;-68
2021/10/25 22:40:36;;;;;;;46.23;43.03;;;;;;;9.79;100.00;101862.44;1941115;74;33072;-68
2021/10/25 22:46:00;;;;;;;47.60;44.10;;;;;;;9.50;100.00;101870.56;1941148;74;33008;-67
2021/10/25 22:51:25;;;;;;;48.27;44.73;;;;;;;10.02;100.00;101871.91;1941148;74;31057;-67
2021/10/25 22:56:50;;;;;;;47.40;43.80;;;;;;;10.01;100.00;101870.80;1941325;74;32999;-68
2021/10/25 23:02:14;;;;;;;47.60;44.00;;;;;;;10.02;100.00;101868.29;1941128;74;33081;-68
2021/10/25 23:07:40;;;;;;;49.43;45.53;;;;;;;9.82;100.00;101865.23;1941132;74;33094;-68
2021/10/25 23:13:05;;;;;;;47.83;43.90;;;;;;;10.01;100.00;101868.02;1941331;74;33598;-68
2021/10/25 23:18:29;;;;;;;45.87;41.97;;;;;;;9.92;100.00;101857.06;1941224;74;33132;-68
2021/10/25 23:23:53;;;;;;;46.30;42.73;;;;;;;10.00;100.00;101864.41;1941105;74;33200;-68
2021/10/25 23:29:18;;;;;;;48.00;44.13;;;;;;;9.91;100.00;101867.33;1941081;74;33110;-67
2021/10/25 23:34:42;;;;;;;48.90;44.97;;;;;;;10.01;100.00;101874.96;1941262;74;33584;-68
2021/10/25 23:40:10;;;;;;;46.87;43.37;;;;;;;9.91;100.00;101867.33;1941331;74;33477;-68
2021/10/25 23:45:35;;;;;;;47.70;44.00;;;;;;;9.99;100.00;101865.49;1941088;74;33123;-68
2021/10/25 23:51:00;;;;;;;49.17;45.43;;;;;;;9.89;100.00;101858.95;1941164;74;33085;-68
2021/10/25 23:56:24;;;;;;;49.03;45.17;;;;;;;9.95;100.00;101860.70;1941365;74;33052;-68
